Dades meteomassalio
Diari Summary for Juny 30, 2017 Units:  Metric    English   Both
« Previous Day
Next Day »
Diari Semanal Mensual Anual Personalitzat
  Maxima: Minima: Mijana:
Temperatura: -17.8 °C -10.8 °C -7.2 °C
Rosada: -17.8 °C -15.9 °C -13.7 °C
Humitat: Humidity % 35 % 47 %
Velocitat del vent: 0 km/h 0 km/h 32.7 km/h
Racha vent: 0 km/h - -
Vent:- - NW
Pressio: 0 hPa 34198.6 hPa -
Pluja: 0 mm    
Historical Graphs
 
 
Tabular Data for Juny 30, 2017
Time Temperature Dew Point Pressure Wind Wind Speed Wind Gust Humidity Rainfall Rate (Hourly) solar Conditions
-17.8 °C -17.8 °C 0 hPa Calm     Humidity % 0 mm SolarRadiationWatts/m^2 W/m2 Conditions
00:04 -7.1 °C -15.8 °C 34198.6 hPa Calm     35 % 0 mm 0.0 W/m2 CLR
00:09 -7.1 °C -15.8 °C 34212.1 hPa WNW 5.1 km/h 5.1 km/h 35 % 0 mm 0.0 W/m2 CLR
00:14 -7.1 °C -15.9 °C 34212.1 hPa WNW 9 km/h 9 km/h 35 % 0 mm 0.0 W/m2 CLR
00:19 -7.2 °C -15.8 °C 34212.1 hPa WNW 6 km/h 6 km/h 36 % 0 mm 0.0 W/m2 CLR
00:24 -7.3 °C -15.9 °C 34212.1 hPa WNW 7.7 km/h 7.7 km/h 36 % 0 mm 0.0 W/m2 CLR
00:29 -7.3 °C -15.9 °C 34212.1 hPa WNW 9 km/h 9 km/h 36 % 0 mm 0.0 W/m2 CLR
00:34 -7.3 °C -15.9 °C 34212.1 hPa NNW 7.7 km/h 7.7 km/h 36 % 0 mm 0.0 W/m2 CLR
00:39 -7.3 °C -15.9 °C 34212.1 hPa NW 20.9 km/h 20.9 km/h 36 % 0 mm 0.0 W/m2 CLR
00:44 -7.4 °C -15.8 °C 34212.1 hPa NW 23.8 km/h 23.8 km/h 37 % 0 mm 0.0 W/m2 CLR
00:45 -7.4 °C -15.7 °C 34212.1 hPa NNW 29.8 km/h 29.8 km/h 37 % 0 mm 0.0 W/m2 CLR
00:50 -7.2 °C -15.6 °C 34212.1 hPa North 25.9 km/h 25.9 km/h 37 % 0 mm 0.0 W/m2 CLR
00:55 -7.2 °C -15.3 °C 34212.1 hPa NW 20.9 km/h 20.9 km/h 38 % 0 mm 0.0 W/m2 CLR
01:00 -7.3 °C -15.2 °C 34222.3 hPa North 26.9 km/h 26.9 km/h 39 % 0 mm 0.0 W/m2 CLR
01:05 -7.3 °C -15.1 °C 34222.3 hPa NNW 15.6 km/h 15.6 km/h 40 % 0 mm 0.0 W/m2 CLR
01:10 -7.4 °C -14.9 °C 34222.3 hPa NNW 15 km/h 15 km/h 41 % 0 mm 0.0 W/m2 CLR
01:15 -7.5 °C -14.8 °C 34235.8 hPa Calm     42 % 0 mm 0.0 W/m2 CLR
01:20 -7.7 °C -14.9 °C 34235.8 hPa WNW 12.9 km/h 12.9 km/h 42 % 0 mm 0.0 W/m2 CLR
01:21 -7.7 °C -14.9 °C 34235.8 hPa WNW 17.9 km/h 17.9 km/h 42 % 0 mm 0.0 W/m2 CLR
01:26 -7.9 °C -14.8 °C 34246 hPa NW 29.8 km/h 29.8 km/h 44 % 0 mm 0.0 W/m2 CLR
01:31 -7.9 °C -14.7 °C 34246 hPa NW 25.9 km/h 25.9 km/h 45 % 0 mm 0.0 W/m2 CLR
01:36 -7.9 °C -14.6 °C 34246 hPa NW 23.8 km/h 23.8 km/h 45 % 0 mm 0.0 W/m2 CLR
01:41 -7.8 °C -14.4 °C 34246 hPa NNW 17.9 km/h 17.9 km/h 46 % 0 mm 0.0 W/m2 CLR
01:46 -7.9 °C -14.3 °C 34256.2 hPa NW 23.8 km/h 23.8 km/h 47 % 0 mm 0.0 W/m2 CLR
01:51 -7.9 °C -14.3 °C 34256.2 hPa NW 26.9 km/h 26.9 km/h 47 % 0 mm 0.0 W/m2 CLR
01:56 -7.9 °C -14.2 °C 34269.7 hPa NW 29.8 km/h 29.8 km/h 48 % 0 mm 0.0 W/m2 CLR
02:01 -8.1 °C -14.1 °C 34269.7 hPa NW 26.9 km/h 26.9 km/h 49 % 0 mm 0.0 W/m2 CLR
02:06 -8.2 °C -14.2 °C 34269.7 hPa NW 23.3 km/h 23.3 km/h 49 % 0 mm 0.0 W/m2 CLR
02:11 -8.3 °C -14.3 °C 34279.9 hPa WNW 17.9 km/h 17.9 km/h 49 % 0 mm 0.0 W/m2 CLR
02:16 -8.3 °C -14.2 °C 34279.9 hPa NW 32.8 km/h 32.8 km/h 50 % 0 mm 0.0 W/m2 CLR
02:21 -8.3 °C -13.8 °C 34279.9 hPa NNW 36.2 km/h 36.2 km/h 52 % 0 mm 0.0 W/m2 CLR
02:26 -8.2 °C -13.7 °C 34279.9 hPa NW 38.8 km/h 38.8 km/h 52 % 0 mm 0.0 W/m2 CLR
02:31 -8.2 °C -13.6 °C 34279.9 hPa NW 35.7 km/h 35.7 km/h 53 % 0 mm 0.0 W/m2 CLR
02:36 -8.3 °C -13.7 °C 34279.9 hPa NW 38.8 km/h 38.8 km/h 53 % 0 mm 0.0 W/m2 CLR
02:41 -8.3 °C -13.7 °C 34279.9 hPa NW 29.8 km/h 29.8 km/h 53 % 0 mm 0.0 W/m2 CLR
02:46 -8.4 °C -13.6 °C 34279.9 hPa NNW 29.8 km/h 29.8 km/h 54 % 0 mm 0.0 W/m2 CLR
02:51 -8.4 °C -13.5 °C 34293.4 hPa NW 29.8 km/h 29.8 km/h 55 % 0 mm 0.0 W/m2 CLR
02:56 -8.4 °C -13.5 °C 34293.4 hPa Calm     55 % 0 mm 0.0 W/m2 CLR
03:01 -8.6 °C -13.6 °C 34293.4 hPa Calm     55 % 0 mm 0.0 W/m2 CLR
03:06 -8.6 °C -13.7 °C 34293.4 hPa Calm     55 % 0 mm 0.0 W/m2 CLR
03:11 -8.7 °C -13.6 °C 34293.4 hPa Calm     56 % 0 mm 0.0 W/m2 CLR
03:16 -8.7 °C -13.6 °C 34293.4 hPa Calm     56 % 0 mm 0.0 W/m2 CLR
03:21 -8.8 °C -13.7 °C 34293.4 hPa Calm     56 % 0 mm 0.0 W/m2 CLR
03:26 -8.8 °C -13.6 °C 34293.4 hPa Calm     57 % 0 mm 0.0 W/m2 CLR
03:31 -8.9 °C -13.7 °C 34303.6 hPa Calm     57 % 0 mm 0.0 W/m2 CLR
03:36 -9 °C -13.6 °C 34303.6 hPa Calm     58 % 0 mm 0.0 W/m2 CLR
03:41 -9.1 °C -13.7 °C 34303.6 hPa Calm     58 % 0 mm 0.0 W/m2 CLR
03:46 -9.2 °C -13.6 °C 34303.6 hPa Calm     59 % 0 mm 0.0 W/m2 CLR
03:51 -9.1 °C -13.6 °C 34293.4 hPa West 7.7 km/h 7.7 km/h 59 % 0 mm 0.0 W/m2 CLR
03:56 -9.2 °C -13.6 °C 34303.6 hPa West 15.6 km/h 15.6 km/h 59 % 0 mm 0.0 W/m2 CLR
04:01 -9.2 °C -13.7 °C 34293.4 hPa West 11.9 km/h 11.9 km/h 59 % 0 mm 0.0 W/m2 CLR
04:06 -9.3 °C -13.7 °C 34303.6 hPa WSW 17.9 km/h 17.9 km/h 59 % 0 mm 0.0 W/m2 CLR
04:11 -9.4 °C -13.7 °C 34293.4 hPa WSW 15.6 km/h 15.6 km/h 60 % 0 mm 0.0 W/m2 CLR
04:16 -9.4 °C -13.6 °C 34293.4 hPa WSW 20.9 km/h 20.9 km/h 61 % 0 mm 0.0 W/m2 CLR
04:22 -9.5 °C -13.5 °C 34293.4 hPa West 23.8 km/h 23.8 km/h 62 % 0 mm 0.0 W/m2 CLR
04:27 -9.4 °C -13.4 °C 34293.4 hPa WSW 17.9 km/h 17.9 km/h 62 % 0 mm 0.0 W/m2 CLR
04:32 -9.5 °C -13.5 °C 34293.4 hPa West 15.6 km/h 15.6 km/h 62 % 0 mm 0.0 W/m2 CLR
04:37 -9.6 °C -13.4 °C 34293.4 hPa WSW 9 km/h 9 km/h 63 % 0 mm 0.0 W/m2 CLR
04:42 -9.6 °C -13.5 °C 34293.4 hPa West 9 km/h 9 km/h 63 % 0 mm 0.0 W/m2 CLR
04:47 -9.7 °C -13.4 °C 34293.4 hPa WSW 15 km/h 15 km/h 64 % 0 mm 0.0 W/m2 CLR
04:52 -9.8 °C -13.5 °C 34293.4 hPa West 12.9 km/h 12.9 km/h 64 % 0 mm 0.0 W/m2 CLR
04:57 -9.8 °C -13.3 °C 34293.4 hPa West 23.8 km/h 23.8 km/h 66 % 0 mm 0.0 W/m2 CLR
05:02 -9.7 °C -13.3 °C 34293.4 hPa West 23.8 km/h 23.8 km/h 65 % 0 mm 0.0 W/m2 CLR
05:07 -9.6 °C -13.2 °C 34293.4 hPa West 23.8 km/h 23.8 km/h 65 % 0 mm 0.0 W/m2 CLR
05:12 -9.6 °C -13.2 °C 34293.4 hPa West 20.9 km/h 20.9 km/h 65 % 0 mm 0.0 W/m2 CLR
05:17 -9.6 °C -13.3 °C 34293.4 hPa West 23.8 km/h 23.8 km/h 64 % 0 mm 0.0 W/m2 CLR
05:22 -9.5 °C -13.4 °C 34293.4 hPa West 17.9 km/h 17.9 km/h 63 % 0 mm 0.0 W/m2 CLR
05:27 -9.5 °C -13.5 °C 34293.4 hPa WNW 9 km/h 9 km/h 62 % 0 mm 0.0 W/m2 CLR
05:32 -9.6 °C -13.6 °C 34303.6 hPa Calm     62 % 0 mm 0.0 W/m2 CLR
05:33 -9.6 °C -13.6 °C 34303.6 hPa Calm     62 % 0 mm 0.0 W/m2 CLR
05:38 -9.7 °C -13.4 °C 34303.6 hPa Calm     64 % 0 mm 0.0 W/m2 CLR
05:43 -9.9 °C -13.5 °C 34293.4 hPa Calm     65 % 0 mm 0.0 W/m2 CLR
05:48 -10.1 °C -13.5 °C 34293.4 hPa Calm     66 % 0 mm 0.0 W/m2 CLR
05:53 -10.2 °C -13.5 °C 34303.6 hPa West 11.9 km/h 11.9 km/h 67 % 0 mm 0.0 W/m2 CLR
05:58 -10.2 °C -13.5 °C 34303.6 hPa West 15 km/h 15 km/h 67 % 0 mm 0.0 W/m2 CLR
06:03 -10.1 °C -13.6 °C 34303.6 hPa WSW 15 km/h 15 km/h 66 % 0 mm 0.0 W/m2 CLR
06:08 -10.1 °C -13.6 °C 34303.6 hPa WSW 11.9 km/h 11.9 km/h 66 % 0 mm 0.0 W/m2 CLR
06:13 -10.2 °C -13.7 °C 34303.6 hPa SW 5.1 km/h 5.1 km/h 66 % 0 mm 0.0 W/m2 CLR
06:18 -10.4 °C -13.8 °C 34303.6 hPa WSW 11.9 km/h 11.9 km/h 67 % 0 mm 0.0 W/m2 CLR
06:23 -10.7 °C -13.8 °C 34303.6 hPa SW 15.6 km/h 15.6 km/h 69 % 0 mm 0.0 W/m2 OVC
06:29 -10.8 °C -13.8 °C 34313.7 hPa WSW 11.9 km/h 11.9 km/h 70 % 0 mm 0.0 W/m2 OVC
06:34 -10.8 °C -13.7 °C 34313.7 hPa WSW 11.9 km/h 11.9 km/h 71 % 0 mm 5.0 W/m2 OVC
06:39 -10.7 °C -13.5 °C 34313.7 hPa West 15.6 km/h 15.6 km/h 71 % 0 mm 7.0 W/m2 BKN
06:44 -10.4 °C -13.4 °C 34313.7 hPa West 20.8 km/h 20.8 km/h 70 % 0 mm 9.0 W/m2 BKN
06:49 -10.2 °C -13.4 °C 34313.7 hPa WSW 20.9 km/h 20.9 km/h 68 % 0 mm 11.0 W/m2 BKN
06:54 -10.2 °C -13.6 °C 34327.3 hPa WSW 18.2 km/h 18.2 km/h 67 % 0 mm 12.0 W/m2 BKN
06:59 -10.1 °C -13.4 °C 34327.3 hPa West 29.8 km/h 29.8 km/h 67 % 0 mm 14.0 W/m2 BKN
07:04 -10 °C -13.5 °C 34327.3 hPa West 23.3 km/h 23.3 km/h 66 % 0 mm 19.0 W/m2 BKN
07:09 -9.8 °C -13.4 °C 34327.3 hPa SW 20.9 km/h 20.9 km/h 65 % 0 mm 26.0 W/m2 BKN
07:14 -9.6 °C -13.7 °C 34327.3 hPa West 23.8 km/h 23.8 km/h 62 % 0 mm 39.0 W/m2 BKN
07:19 -9.4 °C -13.6 °C 34327.3 hPa WNW 26.9 km/h 26.9 km/h 61 % 0 mm 47.0 W/m2 SCT
07:24 -9.4 °C -13.5 °C 34327.3 hPa West 29.8 km/h 29.8 km/h 61 % 0 mm 62.0 W/m2 SCT
07:29 -9.3 °C -13.7 °C 34337.4 hPa WNW 23.8 km/h 23.8 km/h 59 % 0 mm 74.0 W/m2 FEW
07:34 -9.2 °C -13.7 °C 34337.4 hPa WSW 18.2 km/h 18.2 km/h 58 % 0 mm 86.0 W/m2 FEW
07:39 -9.1 °C -13.8 °C 34337.4 hPa West 26.9 km/h 26.9 km/h 57 % 0 mm 100.0 W/m2 FEW
07:44 -9 °C -13.8 °C 34337.4 hPa WSW 23.8 km/h 23.8 km/h 56 % 0 mm 120.0 W/m2 CLR
07:49 -8.9 °C -13.8 °C 34337.4 hPa West 9 km/h 9 km/h 56 % 0 mm 135.0 W/m2 CLR
07:54 -8.8 °C -13.8 °C 34347.6 hPa WSW 26.9 km/h 26.9 km/h 55 % 0 mm 151.0 W/m2 CLR
07:59 -8.8 °C -13.9 °C 34347.6 hPa West 29.8 km/h 29.8 km/h 54 % 0 mm 167.0 W/m2 CLR
08:04 -8.8 °C -13.9 °C 34347.6 hPa West 26.9 km/h 26.9 km/h 54 % 0 mm 185.0 W/m2 CLR
08:09 -8.7 °C -13.9 °C 34347.6 hPa West 26.9 km/h 26.9 km/h 54 % 0 mm 204.0 W/m2 CLR
08:14 -8.7 °C -13.9 °C 34347.6 hPa West 23.8 km/h 23.8 km/h 54 % 0 mm 220.0 W/m2 CLR
08:19 -8.7 °C -14 °C 34347.6 hPa West 20.9 km/h 20.9 km/h 53 % 0 mm 234.0 W/m2 CLR
08:24 -8.6 °C -13.9 °C 34361.1 hPa West 11.9 km/h 11.9 km/h 53 % 0 mm 248.0 W/m2 CLR
08:29 -8.5 °C -13.8 °C 34361.1 hPa NW 20.9 km/h 20.9 km/h 53 % 0 mm 265.0 W/m2 CLR
08:34 -8.4 °C -13.9 °C 34361.1 hPa WNW 29.8 km/h 29.8 km/h 52 % 0 mm 281.0 W/m2 CLR
08:39 -8.4 °C -13.9 °C 34361.1 hPa West 31.1 km/h 31.1 km/h 52 % 0 mm 295.0 W/m2 CLR
08:44 -8.4 °C -13.9 °C 34361.1 hPa WNW 29.8 km/h 29.8 km/h 52 % 0 mm 311.0 W/m2 CLR
08:49 -8.2 °C -13.9 °C 34361.1 hPa NW 29.8 km/h 29.8 km/h 51 % 0 mm 327.0 W/m2 CLR
08:54 -8.1 °C -14 °C 34371.3 hPa NW 32.8 km/h 32.8 km/h 50 % 0 mm 341.0 W/m2 CLR
08:59 -8.2 °C -14 °C 34371.3 hPa NW 31.1 km/h 31.1 km/h 50 % 0 mm 359.0 W/m2 CLR
09:04 -8.1 °C -13.9 °C 34371.3 hPa WNW 35.7 km/h 35.7 km/h 50 % 0 mm 374.0 W/m2 CLR
09:09 -8.1 °C -13.9 °C 34384.8 hPa West 23.8 km/h 23.8 km/h 50 % 0 mm 387.0 W/m2 CLR
09:14 -7.9 °C -13.8 °C 34371.3 hPa NW 44.7 km/h 44.7 km/h 50 % 0 mm 404.0 W/m2 CLR
09:19 -8 °C -13.8 °C 34384.8 hPa WNW 35.7 km/h 35.7 km/h 50 % 0 mm 420.0 W/m2 CLR
09:24 -7.9 °C -13.8 °C 34384.8 hPa NW 26.9 km/h 26.9 km/h 50 % 0 mm 434.0 W/m2 CLR
09:29 -7.9 °C -13.9 °C 34384.8 hPa NW 26.9 km/h 26.9 km/h 49 % 0 mm 448.0 W/m2 CLR
09:39 -7.7 °C -14.1 °C 34371.3 hPa West 41.7 km/h 41.7 km/h 47 % 0 mm 483.0 W/m2 CLR
09:44 -7.8 °C -14 °C 34371.3 hPa WNW 26.9 km/h 26.9 km/h 48 % 0 mm 497.0 W/m2 CLR
09:49 -7.7 °C -13.9 °C 34371.3 hPa NW 44.7 km/h 44.7 km/h 48 % 0 mm 512.0 W/m2 CLR
09:54 -7.6 °C -13.9 °C 34371.3 hPa WNW 35.7 km/h 35.7 km/h 47 % 0 mm 526.0 W/m2 CLR
09:59 -7.6 °C -13.9 °C 34371.3 hPa NW 23.8 km/h 23.8 km/h 47 % 0 mm 540.0 W/m2 CLR
10:04 -7.4 °C -14 °C 34371.3 hPa NNW 29.8 km/h 29.8 km/h 46 % 0 mm 557.0 W/m2 CLR
10:09 -7.2 °C -14 °C 34371.3 hPa NW 29.8 km/h 29.8 km/h 45 % 0 mm 573.0 W/m2 CLR
10:14 -7.1 °C -14.1 °C 34371.3 hPa WNW 35.7 km/h 35.7 km/h 44 % 0 mm 587.0 W/m2 CLR
10:19 -7.1 °C -14.1 °C 34371.3 hPa NW 49.2 km/h 49.2 km/h 44 % 0 mm 599.0 W/m2 CLR
10:24 -7.3 °C -14.2 °C 34371.3 hPa NNW 32.8 km/h 32.8 km/h 44 % 0 mm 613.0 W/m2 CLR
10:29 -7.2 °C -14.2 °C 34371.3 hPa NNW 31.1 km/h 31.1 km/h 44 % 0 mm 629.0 W/m2 CLR
10:34 -7 °C -14 °C 34371.3 hPa NNW 23.8 km/h 23.8 km/h 44 % 0 mm 643.0 W/m2 CLR
10:39 -7.1 °C -14.4 °C 34371.3 hPa NNW 29.8 km/h 29.8 km/h 42 % 0 mm 656.0 W/m2 CLR
10:44 -7 °C -14.4 °C 34371.3 hPa NW 29.8 km/h 29.8 km/h 42 % 0 mm 670.0 W/m2 CLR
10:49 -6.9 °C -14.3 °C 34371.3 hPa West 32.8 km/h 32.8 km/h 42 % 0 mm 684.0 W/m2 CLR
10:54 -6.9 °C -14.4 °C 34371.3 hPa NW 38.8 km/h 38.8 km/h 41 % 0 mm 694.0 W/m2 CLR
10:59 -6.7 °C -14.3 °C 34371.3 hPa WNW 32.8 km/h 32.8 km/h 41 % 0 mm 707.0 W/m2 CLR
11:04 -6.7 °C -14.3 °C 34371.3 hPa NNW 35.7 km/h 35.7 km/h 41 % 0 mm 721.0 W/m2 CLR
11:05 -6.7 °C -14.3 °C 34371.3 hPa NW 35.7 km/h 35.7 km/h 41 % 0 mm 722.0 W/m2 CLR
11:10 -6.6 °C -14.4 °C 34371.3 hPa NNW 41.7 km/h 41.7 km/h 40 % 0 mm 733.0 W/m2 CLR
11:15 -6.6 °C -14.4 °C 34371.3 hPa WNW 38.8 km/h 38.8 km/h 40 % 0 mm 744.0 W/m2 CLR
11:20 -6.8 °C -14.6 °C 34371.3 hPa NW 38.8 km/h 38.8 km/h 40 % 0 mm 759.0 W/m2 CLR
11:25 -6.6 °C -14.4 °C 34371.3 hPa WNW 20.9 km/h 20.9 km/h 40 % 0 mm 770.0 W/m2 CLR
11:27 -6.6 °C -14.4 °C 34371.3 hPa NW 44.7 km/h 44.7 km/h 40 % 0 mm 773.0 W/m2 CLR
11:32 -6.5 °C -14.3 °C 34371.3 hPa NNW 33.6 km/h 33.6 km/h 40 % 0 mm 788.0 W/m2 CLR
11:37 -6.4 °C -14.3 °C 34371.3 hPa NNW 50.7 km/h 50.7 km/h 40 % 0 mm 807.0 W/m2 CLR
11:42 -6.4 °C -14.2 °C 34371.3 hPa NW 38.8 km/h 38.8 km/h 40 % 0 mm 812.0 W/m2 CLR
11:47 -6.4 °C -14.2 °C 34371.3 hPa WNW 29.8 km/h 29.8 km/h 40 % 0 mm 842.0 W/m2 CLR
11:52 -6.3 °C -14.1 °C 34371.3 hPa NNW 41.7 km/h 41.7 km/h 40 % 0 mm 860.0 W/m2 CLR
11:57 -6.2 °C -14.2 °C 34371.3 hPa North 32.8 km/h 32.8 km/h 39 % 0 mm 893.0 W/m2 CLR
12:02 -6.2 °C -14.3 °C 34371.3 hPa NNW 35.7 km/h 35.7 km/h 39 % 0 mm 914.0 W/m2 CLR
12:07 -6.3 °C -14.3 °C 34371.3 hPa NNW 50.7 km/h 50.7 km/h 39 % 0 mm 114.0 W/m2 CLR
12:13 -6.4 °C -14.3 °C 34371.3 hPa NW 29.8 km/h 29.8 km/h 40 % 0 mm 925.0 W/m2 CLR
12:18 -6.4 °C -14.2 °C 34371.3 hPa NNW 28.5 km/h 28.5 km/h 40 % 0 mm 267.0 W/m2 CLR
12:23 -6.3 °C -14 °C 34371.3 hPa NNW 35.7 km/h 35.7 km/h 41 % 0 mm 981.0 W/m2 CLR
12:28 -6.1 °C -14.1 °C 34371.3 hPa NNW 29.8 km/h 29.8 km/h 39 % 0 mm 995.0 W/m2 CLR
12:32 -5.9 °C -14.2 °C 34371.3 hPa West 41.7 km/h 41.7 km/h 38 % 0 mm 1016.0 W/m2 CLR
12:37 -6.1 °C -13.7 °C 34371.3 hPa NNW 29.8 km/h 29.8 km/h 41 % 0 mm 1065.0 W/m2 CLR
12:42 -6 °C -13.9 °C 34371.3 hPa WNW 36.2 km/h 36.2 km/h 40 % 0 mm 287.0 W/m2 CLR
12:47 -5.9 °C -13.8 °C 34371.3 hPa North 38.8 km/h 38.8 km/h 40 % 0 mm 969.0 W/m2 CLR
12:53 -5.7 °C -13.6 °C 34371.3 hPa NW 38.8 km/h 39.9 km/h 40 % 0 mm 1004.0 W/m2 CLR
12:58 -6.2 °C -14.2 °C 34371.3 hPa NW 35.7 km/h 35.7 km/h 39 % 0 mm 221.0 W/m2 CLR
13:03 -6.3 °C -14.3 °C 34371.3 hPa NW 44.7 km/h 44.7 km/h 39 % 0 mm 1058.0 W/m2 CLR
13:08 -6.1 °C -14.1 °C 34371.3 hPa NNW 47.6 km/h 47.6 km/h 39 % 0 mm 274.0 W/m2 CLR
13:13 -6 °C -14.1 °C 34371.3 hPa NNW 38.8 km/h 38.8 km/h 39 % 0 mm 1072.0 W/m2 CLR
13:18 -5.9 °C -14 °C 34371.3 hPa NNW 41.7 km/h 41.7 km/h 39 % 0 mm 199.0 W/m2 CLR
13:23 -5.9 °C -13.7 °C 34371.3 hPa WNW 44.7 km/h 44.7 km/h 40 % 0 mm 990.0 W/m2 CLR
13:28 -5.8 °C -13.8 °C 34371.3 hPa NNW 53.6 km/h 53.6 km/h 39 % 0 mm 1090.0 W/m2 CLR
13:33 -5.7 °C -13.8 °C 34371.3 hPa NNW 33.6 km/h 33.6 km/h 39 % 0 mm 1132.0 W/m2 CLR
13:38 -5.8 °C -14.1 °C 34371.3 hPa NW 59.5 km/h 59.5 km/h 38 % 0 mm 1102.0 W/m2 CLR
13:43 -5.7 °C -13.9 °C 34371.3 hPa WNW 38.8 km/h 38.8 km/h 38 % 0 mm 998.0 W/m2 CLR
13:48 -5.6 °C -14.1 °C 34371.3 hPa WNW 38.8 km/h 38.8 km/h 37 % 0 mm 207.0 W/m2 CLR
13:53 -5.7 °C -14.1 °C 34371.3 hPa NW 29.8 km/h 29.8 km/h 38 % 0 mm 316.0 W/m2 CLR
13:58 -5.7 °C -14 °C 34371.3 hPa NW 23.8 km/h 23.8 km/h 38 % 0 mm 1095.0 W/m2 CLR
14:03 -5.4 °C -13.8 °C 34371.3 hPa NW 38.8 km/h 38.8 km/h 38 % 0 mm 1121.0 W/m2 CLR
14:08 -5.3 °C -13.9 °C 34371.3 hPa North 44.7 km/h 44.7 km/h 37 % 0 mm 1137.0 W/m2 CLR
14:13 -5.3 °C -13.9 °C 34371.3 hPa NNW 47.6 km/h 47.6 km/h 37 % 0 mm 279.0 W/m2 CLR
14:18 -5.6 °C -13.9 °C 34371.3 hPa North 38.8 km/h 38.8 km/h 38 % 0 mm 267.0 W/m2 CLR
14:23 -5.6 °C -13.9 °C 34371.3 hPa NNW 36.2 km/h 36.2 km/h 38 % 0 mm 1049.0 W/m2 CLR
14:28 -5.3 °C -13.7 °C 34371.3 hPa North 41.7 km/h 41.7 km/h 38 % 0 mm 1157.0 W/m2 CLR
14:33 -5.4 °C -13.8 °C 34371.3 hPa NNW 44.7 km/h 44.7 km/h 38 % 0 mm 325.0 W/m2 CLR
14:38 -5.3 °C -13.8 °C 34371.3 hPa NW 38.8 km/h 38.8 km/h 37 % 0 mm 1085.0 W/m2 CLR
14:43 -5.1 °C -13.9 °C 34371.3 hPa NW 38.8 km/h 38.8 km/h 36 % 0 mm 1027.0 W/m2 CLR
14:48 -4.9 °C -13.8 °C 34371.3 hPa WNW 53.6 km/h 53.6 km/h 36 % 0 mm 1123.0 W/m2 CLR
14:53 -4.9 °C -13.7 °C 34371.3 hPa NNW 47.6 km/h 47.6 km/h 36 % 0 mm 970.0 W/m2 CLR
14:58 -4.9 °C -13.7 °C 34371.3 hPa NNW 53.6 km/h 53.6 km/h 36 % 0 mm 1114.0 W/m2 CLR
15:03 -5.1 °C -13.9 °C 34371.3 hPa WNW 51.8 km/h 51.8 km/h 36 % 0 mm 1056.0 W/m2 CLR
15:13 -5.1 °C -13.7 °C 34371.3 hPa WNW 35.7 km/h 35.7 km/h 37 % 0 mm 1063.0 W/m2 CLR
15:18 -5 °C -13.6 °C 34371.3 hPa NNW 35.7 km/h 35.7 km/h 37 % 0 mm 984.0 W/m2 CLR
15:23 -5.2 °C -13.6 °C 34371.3 hPa NNW 57 km/h 57 km/h 38 % 0 mm 1044.0 W/m2 CLR
15:28 -5.2 °C -13.8 °C 34371.3 hPa NNW 68.6 km/h 68.6 km/h 37 % 0 mm 311.0 W/m2 CLR
15:33 -5.4 °C -13.7 °C 34371.3 hPa WNW 38.8 km/h 38.8 km/h 38 % 0 mm 1120.0 W/m2 CLR
15:38 -5.2 °C -13.7 °C 34371.3 hPa WNW 50.7 km/h 50.7 km/h 37 % 0 mm 1063.0 W/m2 CLR
15:43 -5.4 °C -13.5 °C 34371.3 hPa North 41.7 km/h 41.7 km/h 39 % 0 mm 1027.0 W/m2 CLR
15:48 -5.1 °C -13.5 °C 34361.1 hPa NNW 41.7 km/h 41.7 km/h 38 % 0 mm 949.0 W/m2 CLR
15:53 -4.8 °C -13.4 °C 34361.1 hPa NW 38.8 km/h 38.8 km/h 37 % 0 mm 937.0 W/m2 CLR
15:58 -5.1 °C -13.7 °C 34361.1 hPa NNW 32.8 km/h 32.8 km/h 37 % 0 mm 940.0 W/m2 CLR
16:03 -4.8 °C -13.4 °C 34371.3 hPa NNW 68.6 km/h 68.6 km/h 37 % 0 mm 882.0 W/m2 CLR
16:08 -4.9 °C -13.7 °C 34361.1 hPa North 57 km/h 57 km/h 36 % 0 mm 909.0 W/m2 CLR
16:13 -5.3 °C -13.7 °C 34361.1 hPa North 47.6 km/h 47.6 km/h 38 % 0 mm 214.0 W/m2 CLR
16:18 -5.3 °C -13.7 °C 34361.1 hPa WNW 41.7 km/h 41.7 km/h 38 % 0 mm 287.0 W/m2 CLR
16:23 -5.3 °C -13.4 °C 34371.3 hPa NNW 65.5 km/h 65.5 km/h 39 % 0 mm 311.0 W/m2 CLR
16:28 -5.1 °C -13.4 °C 34361.1 hPa NW 44.7 km/h 44.7 km/h 38 % 0 mm 823.0 W/m2 CLR
16:33 -4.9 °C -13.3 °C 34361.1 hPa NNW 50.7 km/h 50.7 km/h 38 % 0 mm 858.0 W/m2 CLR
16:38 -5.1 °C -13.4 °C 34361.1 hPa NNW 41.7 km/h 41.7 km/h 38 % 0 mm 896.0 W/m2 CLR
16:43 -4.9 °C -13.1 °C 34361.1 hPa NW 50.7 km/h 50.7 km/h 39 % 0 mm 900.0 W/m2 CLR
16:48 -5.1 °C -13.4 °C 34371.3 hPa NW 41.4 km/h 41.4 km/h 38 % 0 mm 186.0 W/m2 CLR
16:53 -4.9 °C -13.3 °C 34361.1 hPa NNW 44.7 km/h 44.7 km/h 38 % 0 mm 868.0 W/m2 CLR
16:58 -4.9 °C -13.3 °C 34361.1 hPa NW 38.8 km/h 38.8 km/h 38 % 0 mm 248.0 W/m2 CLR
17:03 -5 °C -13.4 °C 34361.1 hPa North 38.8 km/h 38.8 km/h 38 % 0 mm 171.0 W/m2 CLR
17:08 -5.1 °C -13.4 °C 34361.1 hPa NW 53.6 km/h 53.6 km/h 38 % 0 mm 831.0 W/m2 CLR
17:13 -4.8 °C -13.4 °C 34361.1 hPa NW 62.6 km/h 62.6 km/h 37 % 0 mm 758.0 W/m2 CLR
17:18 -4.8 °C -13.7 °C 34361.1 hPa NW 50.7 km/h 50.7 km/h 36 % 0 mm 726.0 W/m2 CLR
17:23 -4.8 °C -13.6 °C 34361.1 hPa WNW 53.6 km/h 53.6 km/h 36 % 0 mm 687.0 W/m2 CLR
17:28 -5.1 °C -13.9 °C 34361.1 hPa NNW 62.6 km/h 62.6 km/h 36 % 0 mm 118.0 W/m2 CLR
17:33 -4.9 °C -13.6 °C 34361.1 hPa NW 44.7 km/h 44.7 km/h 37 % 0 mm 691.0 W/m2 CLR
17:38 -4.9 °C -13.8 °C 34361.1 hPa North 38.8 km/h 38.8 km/h 36 % 0 mm 109.0 W/m2 CLR
17:43 -4.9 °C -13.8 °C 34361.1 hPa NW 53.6 km/h 53.6 km/h 36 % 0 mm 635.0 W/m2 CLR
17:48 -4.8 °C -13.6 °C 34361.1 hPa NNE 49.2 km/h 49.2 km/h 36 % 0 mm 624.0 W/m2 CLR
17:53 -4.6 °C -13.4 °C 34361.1 hPa North 71.5 km/h 71.5 km/h 36 % 0 mm 664.0 W/m2 CLR
17:58 -4.8 °C -13.4 °C 34361.1 hPa NNW 56.6 km/h 56.6 km/h 37 % 0 mm 113.0 W/m2 CLR
18:03 -5.1 °C -13.7 °C 34361.1 hPa NNW 54.4 km/h 54.4 km/h 37 % 0 mm 167.0 W/m2 CLR
18:08 -4.9 °C -13.8 °C 34361.1 hPa North 53.6 km/h 53.6 km/h 36 % 0 mm 571.0 W/m2 CLR
18:13 -4.9 °C -13.5 °C 34361.1 hPa NNW 44.1 km/h 44.1 km/h 37 % 0 mm 540.0 W/m2 CLR
18:18 -4.9 °C -13.5 °C 34361.1 hPa NNW 59.5 km/h 59.5 km/h 37 % 0 mm 529.0 W/m2 CLR
18:23 -4.8 °C -13.4 °C 34361.1 hPa NNW 49.2 km/h 49.2 km/h 37 % 0 mm 534.0 W/m2 CLR
18:28 -4.7 °C -13.3 °C 34361.1 hPa North 47.6 km/h 47.6 km/h 37 % 0 mm 559.0 W/m2 CLR
18:32 -4.7 °C -13.4 °C 34361.1 hPa NW 65.5 km/h 65.5 km/h 37 % 0 mm 568.0 W/m2 CLR
18:37 -4.9 °C -13.3 °C 34361.1 hPa NNW 44.1 km/h 44.1 km/h 38 % 0 mm 128.0 W/m2 CLR
18:42 -4.7 °C -13.1 °C 34361.1 hPa NNW 50.7 km/h 50.7 km/h 38 % 0 mm 487.0 W/m2 CLR
18:47 -4.8 °C -13.4 °C 34361.1 hPa NW 59.5 km/h 59.5 km/h 37 % 0 mm 489.0 W/m2 CLR
18:52 -4.7 °C -13.3 °C 34361.1 hPa NW 59.5 km/h 59.5 km/h 37 % 0 mm 482.0 W/m2 CLR
18:57 -4.8 °C -13.2 °C 34361.1 hPa NNW 47.6 km/h 47.6 km/h 38 % 0 mm 434.0 W/m2 CLR
19:02 -4.8 °C -13.2 °C 34361.1 hPa NNW 44.7 km/h 44.7 km/h 38 % 0 mm 404.0 W/m2 CLR
19:07 -4.8 °C -13.2 °C 34371.3 hPa NW 41.7 km/h 41.7 km/h 38 % 0 mm 401.0 W/m2 CLR
19:12 -4.7 °C -13.1 °C 34371.3 hPa NNW 53.6 km/h 53.6 km/h 38 % 0 mm 387.0 W/m2 CLR
19:17 -4.8 °C -13 °C 34371.3 hPa NNW 54.4 km/h 54.4 km/h 39 % 0 mm 357.0 W/m2 CLR
19:22 -4.9 °C -13.2 °C 34371.3 hPa NW 56.6 km/h 56.6 km/h 39 % 0 mm 345.0 W/m2 CLR
19:27 -5.1 °C -13.1 °C 34384.8 hPa North 65.5 km/h 65.5 km/h 40 % 0 mm 318.0 W/m2 CLR
19:32 -5.2 °C -13.2 °C 34384.8 hPa North 50.7 km/h 50.7 km/h 40 % 0 mm 297.0 W/m2 CLR
19:37 -5.3 °C -13.2 °C 34395 hPa NNW 53.6 km/h 53.6 km/h 40 % 0 mm 283.0 W/m2 CLR
19:42 -5.2 °C -13 °C 34384.8 hPa NNW 44.1 km/h 44.1 km/h 41 % 0 mm 260.0 W/m2 CLR
19:45 -5.3 °C -13 °C 34384.8 hPa North 59.5 km/h 59.5 km/h 41 % 0 mm 251.0 W/m2 CLR
19:50 -5.3 °C -13.1 °C 34395 hPa North 38.8 km/h 38.8 km/h 41 % 0 mm 225.0 W/m2 CLR
19:55 -5.3 °C -12.8 °C 34395 hPa North 26.9 km/h 26.9 km/h 42 % 0 mm 209.0 W/m2 CLR
20:00 -5.4 °C -12.7 °C 34395 hPa NNW 53.6 km/h 53.6 km/h 43 % 0 mm 197.0 W/m2 CLR
20:05 -5.5 °C -13 °C 34395 hPa NNW 44.7 km/h 44.7 km/h 42 % 0 mm 39.0 W/m2 CLR
20:10 -5.7 °C -13.2 °C 34395 hPa NNW 59.5 km/h 59.5 km/h 42 % 0 mm 165.0 W/m2 FEW
20:11 -5.7 °C -13 °C 34395 hPa NNW 56.6 km/h 56.6 km/h 43 % 0 mm 165.0 W/m2 FEW
20:16 -5.8 °C -13.1 °C 34395 hPa NNW 53.6 km/h 53.6 km/h 43 % 0 mm 33.0 W/m2 SCT
20:21 -5.9 °C -13.1 °C 34405.1 hPa North 41.7 km/h 41.7 km/h 44 % 0 mm 35.0 W/m2 SCT
20:26 -6 °C -12.9 °C 34405.1 hPa NNW 32.8 km/h 32.8 km/h 45 % 0 mm 88.0 W/m2 SCT
20:31 -5.9 °C -12.9 °C 34405.1 hPa NW 54.4 km/h 54.4 km/h 45 % 0 mm 88.0 W/m2 FEW
20:36 -5.9 °C -13.2 °C 34405.1 hPa NNW 68.6 km/h 68.6 km/h 43 % 0 mm 91.0 W/m2 CLR
20:41 -6 °C -13.1 °C 34405.1 hPa North 41.7 km/h 41.7 km/h 44 % 0 mm 69.0 W/m2 FEW
20:46 -6 °C -12.9 °C 34405.1 hPa North 41.4 km/h 41.4 km/h 45 % 0 mm 47.0 W/m2 SCT
20:51 -6.1 °C -12.8 °C 34418.7 hPa NNW 38.8 km/h 38.8 km/h 46 % 0 mm 23.0 W/m2 BKN
20:56 -6.3 °C -13 °C 34418.7 hPa NW 41.7 km/h 41.7 km/h 46 % 0 mm 16.0 W/m2 BKN
21:01 -6.4 °C -12.8 °C 34418.7 hPa NNW 41.7 km/h 41.7 km/h 48 % 0 mm 12.0 W/m2 BKN
21:06 -6.5 °C -12.7 °C 34428.8 hPa NNW 29.8 km/h 29.8 km/h 49 % 0 mm 9.0 W/m2 BKN
21:11 -6.6 °C -12.6 °C 34428.8 hPa North 44.7 km/h 44.7 km/h 50 % 0 mm 7.0 W/m2 BKN
21:16 -6.7 °C -12.4 °C 34428.8 hPa North 35.7 km/h 35.7 km/h 52 % 0 mm 7.0 W/m2 BKN
21:21 -6.8 °C -12.6 °C 34442.4 hPa North 32.8 km/h 32.8 km/h 51 % 0 mm 5.0 W/m2 OVC
21:26 -6.9 °C -12.9 °C 34442.4 hPa NNW 44.7 km/h 44.7 km/h 50 % 0 mm 0.0 W/m2 OVC
21:31 -7.1 °C -13.2 °C 34442.4 hPa North 44.7 km/h 44.7 km/h 49 % 0 mm 0.0 W/m2 OVC
21:36 -7.2 °C -12.9 °C 34452.6 hPa NNW 47.6 km/h 47.6 km/h 51 % 0 mm 0.0 W/m2 OVC
21:41 -7.3 °C -13 °C 34452.6 hPa NW 38.8 km/h 38.8 km/h 51 % 0 mm 0.0 W/m2 OVC
21:46 -7.3 °C -12.9 °C 34452.6 hPa North 31.1 km/h 31.1 km/h 52 % 0 mm 0.0 W/m2 CLR
21:51 -7.3 °C -12.8 °C 34452.6 hPa NNW 29.8 km/h 29.8 km/h 53 % 0 mm 0.0 W/m2 CLR
21:56 -7.4 °C -12.8 °C 34462.7 hPa NW 38.8 km/h 38.8 km/h 53 % 0 mm 0.0 W/m2 CLR
22:01 -7.4 °C -12.9 °C 34462.7 hPa NW 47.6 km/h 47.6 km/h 53 % 0 mm 0.0 W/m2 CLR
22:06 -7.5 °C -12.9 °C 34476.3 hPa WNW 46.7 km/h 46.7 km/h 53 % 0 mm 0.0 W/m2 CLR
22:11 -7.6 °C -13 °C 34476.3 hPa NNW 51.8 km/h 51.8 km/h 53 % 0 mm 0.0 W/m2 CLR
22:16 -7.7 °C -12.9 °C 34476.3 hPa NW 41.7 km/h 41.7 km/h 54 % 0 mm 0.0 W/m2 CLR
22:21 -7.7 °C -12.9 °C 34486.4 hPa NNW 56.6 km/h 56.6 km/h 54 % 0 mm 0.0 W/m2 CLR
22:26 -7.8 °C -13 °C 34486.4 hPa NNW 41.7 km/h 41.7 km/h 54 % 0 mm 0.0 W/m2 CLR
22:31 -7.8 °C -13.1 °C 34486.4 hPa NW 41.4 km/h 41.4 km/h 54 % 0 mm 0.0 W/m2 CLR
22:36 -7.9 °C -12.9 °C 34496.6 hPa NNW 44.7 km/h 44.7 km/h 55 % 0 mm 0.0 W/m2 CLR
22:41 -7.9 °C -13 °C 34496.6 hPa NW 41.7 km/h 41.7 km/h 55 % 0 mm 0.0 W/m2 CLR
22:46 -7.9 °C -12.9 °C 34496.6 hPa North 29.8 km/h 29.8 km/h 56 % 0 mm 0.0 W/m2 CLR
22:51 -8 °C -12.9 °C 34496.6 hPa WNW 29.8 km/h 29.8 km/h 56 % 0 mm 0.0 W/m2 CLR
22:52 -8 °C -12.9 °C 34496.6 hPa NW 29.8 km/h 29.8 km/h 56 % 0 mm 0.0 W/m2 CLR
22:57 -8.1 °C -12.8 °C 34510.1 hPa NNW 29.8 km/h 29.8 km/h 57 % 0 mm 0.0 W/m2 CLR
23:02 -8.1 °C -12.8 °C 34510.1 hPa NW 29.8 km/h 29.8 km/h 57 % 0 mm 0.0 W/m2 CLR
23:04 -8.1 °C -13 °C 34510.1 hPa NW 38.8 km/h 38.8 km/h 56 % 0 mm 0.0 W/m2 CLR
23:07 -8.1 °C -13 °C 34510.1 hPa NNW 29.8 km/h 29.8 km/h 56 % 0 mm 0.0 W/m2 CLR
23:12 -8.1 °C -13.2 °C 34520.3 hPa WNW 35.7 km/h 35.7 km/h 55 % 0 mm 0.0 W/m2 CLR
23:17 -8.2 °C -13.1 °C 34520.3 hPa NNW 29.8 km/h 29.8 km/h 56 % 0 mm 0.0 W/m2 CLR
23:22 -8.2 °C -13.2 °C 34520.3 hPa NW 36.2 km/h 36.2 km/h 55 % 0 mm 0.0 W/m2 CLR
23:27 -8.2 °C -13.2 °C 34520.3 hPa NW 38.8 km/h 38.8 km/h 56 % 0 mm 0.0 W/m2 CLR
23:32 -8.3 °C -13.2 °C 34520.3 hPa NW 31.1 km/h 31.1 km/h 56 % 0 mm 0.0 W/m2 CLR
23:37 -8.3 °C -13.2 °C 34520.3 hPa NW 29.8 km/h 29.8 km/h 56 % 0 mm 0.0 W/m2 CLR
23:42 -8.4 °C -13.1 °C 34520.3 hPa NW 26.9 km/h 26.9 km/h 57 % 0 mm 0.0 W/m2 CLR
23:47 -8.4 °C -13.2 °C 34520.3 hPa West 17.9 km/h 17.9 km/h 57 % 0 mm 0.0 W/m2 CLR
23:52 -8.4 °C -13.1 °C 34520.3 hPa WNW 18.2 km/h 18.2 km/h 58 % 0 mm 0.0 W/m2 CLR
23:57 -8.5 °C -12.9 °C 34520.3 hPa WNW 26.9 km/h 26.9 km/h 59 % 0 mm 0.0 W/m2 CLR
Lo Temps de Massalio
Compliments of Weather Underground - 1.25 mb